Terminal Aerodrome Forecast
Issued by NWS

Home | Current Version | Previous Version | Text Only | Print | Product List | Glossary On
Versions: 1 2 3 4 5 6 7 8 9 10 11 12 13
000
FTAK31 PANC 210105 AAA
TAFAGK
TAF AMD
PAGK 210105Z 2101/2124 16004KT P6SM -SHRA OVC035
      TEMPO 2101/2105 2SM -SHRA BR BKN025
     FM210800 VRB03KT P6SM VCSH BKN045
     FM212200 14012KT P6SM BKN045=

USA.gov is the U.S. government's official web portal to all federal, state and local government web resources and services.